This is the latest recevied weather packets stored in our database for station/object N4WFF. If no packets are shown the sender has not sent any weather packets the latest 10 day(s).
| Time | Temp. | Humidity | Pressure | Rain* | Wind** | Luminosity | Snow |
|---|---|---|---|---|---|---|---|
| 1778163956 | 21.11° C | 97% | 1013.6 hPa | 0 mm | - | 56 W/m² | - |
| 1778163656 | 21.11° C | 97% | 1013.5 hPa | 0 mm | - | 61 W/m² | - |
| 1778163356 | 21.11° C | 97% | 1013.3 hPa | 0 mm | - | 80 W/m² | - |
| 1778163056 | 21.11° C | 97% | 1013.5 hPa | 0 mm | - | 52 W/m² | - |
| 1778162756 | 21.11° C | 97% | 1013.4 hPa | 0 mm | - | 57 W/m² | - |
| 1778162456 | 20.56° C | 97% | 1013.2 hPa | 0 mm | - | 75 W/m² | - |
| 1778162155 | 20.56° C | 97% | 1013.1 hPa | 2.03 mm | - | 68 W/m² | - |
| 1778161858 | 20.56° C | 97% | 1013.4 hPa | 3.56 mm | - | 33 W/m² | - |
| 1778161556 | 20.56° C | 97% | 1013.2 hPa | 2.03 mm | - | 42 W/m² | - |
| 1778161257 | 20.56° C | 97% | 1013.5 hPa | 1.27 mm | - | 23 W/m² | - |
| 1778160955 | 20.56° C | 97% | 1013.6 hPa | 0.25 mm | - | 9 W/m² | - |
| 1778160660 | 20.56° C | 97% | 1013.5 hPa | 3.3 mm | - | 10 W/m² | - |
| 1778160357 | 20.56° C | 97% | 1013.5 hPa | 0.25 mm | - | 11 W/m² | - |
| 1778160055 | 20° C | 97% | 1013.4 hPa | 2.79 mm | - | 20 W/m² | - |
| 1778159756 | 20° C | 97% | 1013.5 hPa | 0 mm | - | 24 W/m² | - |
| 1778159457 | 20° C | 97% | 1013.6 hPa | 6.35 mm | - | 20 W/m² | - |
| 1778159158 | 20° C | 96% | 1013.6 hPa | 12.45 mm | - | 15 W/m² | - |
| 1778158856 | 20° C | 96% | 1013.5 hPa | 0 mm | - | 10 W/m² | - |
| 1778158556 | 20° C | 96% | 1013.4 hPa | 1.02 mm | - | 7 W/m² | - |
| 1778158255 | 20° C | 96% | 1013.4 hPa | 2.03 mm | - | 11 W/m² | - |
| 1778157956 | 20° C | 96% | 1013.5 hPa | 6.6 mm | - | 10 W/m² | - |
| 1778157656 | 20° C | 96% | 1013.6 hPa | 0 mm | - | 12 W/m² | - |
| 1778157069 | 20° C | 96% | 1013.1 hPa | 0 mm | - | 9 W/m² | - |
| 1778156756 | 20° C | 96% | 1013.3 hPa | 0 mm | - | 10 W/m² | - |
| 1778156455 | 20° C | 96% | 1013 hPa | 0 mm | - | 11 W/m² | - |
* Rain latest hour (hover to see other rain measurements)
** Current wind speed in m/s (hover to see current wind gust speed)